Nearby METAR Reports


KANE - Minneapls/Blaine, Minnesota, USA
Distance from station: ESE 8mi, 13km
Updated: 10/17/2021 7:58am
Clear
Clear
 Wind from calm
Wind: Calm
Temperature: 36°F , 2°C
Dew Point: 36°F , 2°C
Humidity: 100%
Barometer: 30.12 inHg , 1020 hPa
Clouds: Clear
Visibility: 10 miles , 16 km
2021/10/17 12:58 KANE 171258Z 00000KT 10SM CLR 02/02 A3012
KMIC - Mnpls/Crystal, Minnesota, USA
Distance from station: S 8mi, 14km
Updated: 10/17/2021 7:53am
Clear
Clear
 Wind from calm
Wind: Calm
Temperature: 34°F , 1°C
Dew Point: 32°F , 0°C
Humidity: 93%
Barometer: 30.12 inHg , 1020 hPa
Clouds: Clear
Visibility: 9 miles , 14 km
2021/10/17 12:53 KMIC 171253Z 00000KT 9SM CLR 01/00 A3012 RMK AO2 SLP206 T00110000
 
KMSP - Minneapolis, Minnesota, USA
Distance from station: SSE 22mi, 35km
Updated: 10/17/2021 7:53am
Clear
Clear
 Wind from varies
Wind: varies 3 mph , 6 km/h
Temperature: 41°F , 5°C
Dew Point: 36°F , 2°C
Humidity: 81%
Barometer: 30.14 inHg , 1020.7 hPa
Clouds: Clear
Visibility: 10 miles , 16 km
2021/10/17 12:53 KMSP 171253Z VRB03KT 10SM CLR 05/02 A3014 RMK AO2 SLP211 T00500022 $
KSTP - St. Paul, Minnesota, USA
Distance from station: SE 23mi, 38km
Updated: 10/17/2021 7:53am
Few Clouds
Few Clouds
 Wind from calm
Wind: Calm
Temperature: 39°F , 4°C
Dew Point: 37°F , 3°C
Humidity: 93%
Barometer: 30.15 inHg , 1021 hPa
Clouds: Few Clouds
Visibility: 7 miles , 11 km
Cloud details: Few Clouds 200 ft
2021/10/17 12:53 KSTP 171253Z 00000KT 7SM FEW002 04/03 A3015 RMK AO2 SLP212 T00390033
 
KCFE - Buffalo Muni, Minnesota, USA
Distance from station: W 24mi, 38km
Updated: 10/17/2021 7:55am
Clear
Clear
 Wind from calm
Wind: Calm
Temperature: 32°F , 0°C
Dew Point: 32°F , 0°C
Humidity: 100%
Barometer: 30.12 inHg , 1020 hPa
Clouds: Clear
Visibility: 10 miles , 16 km
2021/10/17 12:55 KCFE 171255Z AUTO 00000KT 10SM CLR M00/M00 A3012 RMK AO2
KFCM - Mnpls/Flying Cld, Minnesota, USA
Distance from station: S 25mi, 40km
Updated: 10/17/2021 7:53am
Clear
Clear
 Wind from WSW
Wind: WSW 5 mph , 7 km/h
Temperature: 37°F , 3°C
Wind Chill: 33°F , 1°C
Dew Point: 36°F , 2°C
Humidity: 93%
Barometer: 30.13 inHg , 1020.3 hPa
Clouds: Clear
Visibility: 10 miles , 16 km
2021/10/17 12:53 KFCM 171253Z 25004KT 10SM CLR 03/02 A3013 RMK AO2 SLP208 T00330017
 
KCBG - Cambridge Muni, Minnesota, USA
Distance from station: N 27mi, 43km
Updated: 10/17/2021 7:55am
Clear
Clear
 Wind from calm
Wind: Calm
Temperature: 36°F , 2°C
Dew Point: 28°F , -2°C
Humidity: 75%
Barometer: 30.12 inHg , 1020 hPa
Clouds: Clear
Visibility: 10 miles , 16 km
2021/10/17 12:55 KCBG 171255Z AUTO 00000KT 10SM CLR 02/M02 A3012 RMK AO2
KPNM - Princeton Muni, Minnesota, USA
Distance from station: NNW 27mi, 44km
Updated: 10/17/2021 7:55am

 Wind from calm
Wind: Calm
Temperature: 30°F , -1°C
Dew Point: 30°F , -1°C
Humidity: 100%
Barometer: 30.12 inHg , 1020 hPa
Visibility: 10 miles , 16 km
2021/10/17 12:55 KPNM 171255Z AUTO 00000KT 10SM M01/M01 A3012 RMK AO2
 
K21D - Lake Elmo, Minnesota, USA
Distance from station: ESE 28mi, 46km
Updated: 10/17/2021 7:55am
Mist, Clear
Mist, Clear
 Wind from calm
Wind: Calm
Temperature: 32°F , 0°C
Dew Point: 32°F , 0°C
Humidity: 100%
Barometer: 30.14 inHg , 1020.7 hPa
Summary: Mist
Clouds: Clear
Visibility: 2 1/2 miles , 4 km
2021/10/17 12:55 K21D 171255Z AUTO 00000KT 2 1/2SM BR CLR 00/00 A3014 RMK AO2 VIS 1/2V5
KSGS - South St Paul, Minnesota, USA
Distance from station: SE 28mi, 46km
Updated: 10/17/2021 7:55am
Clear
Clear
 Wind from calm
Wind: Calm
Temperature: 39°F , 4°C
Dew Point: 36°F , 2°C
Humidity: 87%
Barometer: 30.14 inHg , 1020.7 hPa
Clouds: Clear
Visibility: 10 miles , 16 km
2021/10/17 12:55 KSGS 171255Z AUTO 00000KT 10SM CLR 04/02 A3014 RMK AO2 T00350020
 
KMGG - Maple Lake, Minnesota, USA
Distance from station: W 30mi, 48km
Updated: 10/17/2021 5:59am
NOT Current
Clear
Clear
 Wind from calm
Wind: Calm
Temperature: 36°F , 2°C
Dew Point: 36°F , 2°C
Humidity: 100%
Barometer: 30.14 inHg , 1020.7 hPa
Clouds: Clear
Visibility: 10 miles , 16 km
2021/10/17 10:59 KMGG 171059Z AUTO 00000KT 10SM CLR 02/02 A3014 RMK AO2
KOEO - Osceola, Wisconsin, USA
Distance from station: ENE 34mi, 55km
Updated: 10/17/2021 7:55am
Clear
Clear
 Wind from calm
Wind: Calm
Temperature: 30°F , -1°C
Dew Point: 30°F , -1°C
Humidity: 100%
Barometer: 30.16 inHg , 1021.3 hPa
Clouds: Clear
Visibility: 10 miles , 16 km
2021/10/17 12:55 KOEO 171255Z AUTO 00000KT 10SM CLR M01/M01 A3016 RMK AO2 T10121012
 
KLVN - Mnpls/Airlake, Minnesota, USA
Distance from station: S 39mi, 63km
Updated: 10/17/2021 7:55am
Clear
Clear
 Wind from WSW
Wind: WSW 3 mph , 6 km/h
Temperature: 37°F , 3°C
Dew Point: 34°F , 1°C
Humidity: 87%
Barometer: 30.14 inHg , 1020.7 hPa
Clouds: Clear
Visibility: 10 miles , 16 km
2021/10/17 12:55 KLVN 171255Z AUTO 24003KT 10SM CLR 03/01 A3014 RMK AO2
KRNH - New Richmond Mun, Wisconsin, USA
Distance from station: E 41mi, 66km
Updated: 10/17/2021 7:35am
Clear
Clear
 Wind from calm
Wind: Calm
Temperature: 34°F , 1°C
Dew Point: 32°F , 0°C
Humidity: 93%
Barometer: 30.13 inHg , 1020.3 hPa
Clouds: Clear
Visibility: 10 miles , 16 km
2021/10/17 12:35 KRNH 171235Z AUTO 00000KT 10SM CLR 01/00 A3013 RMK AO2 T00090002
 
KROS - Rush City, Minnesota, USA
Distance from station: NNE 41mi, 66km
Updated: 10/17/2021 7:55am
Clear
Clear
 Wind from calm
Wind: Calm
Temperature: 32°F , 0°C
Dew Point: 32°F , 0°C
Humidity: 100%
Barometer: 30.11 inHg , 1019.6 hPa
Clouds: Clear
Visibility: 10 miles , 16 km
2021/10/17 12:55 KROS 171255Z AUTO 00000KT 10SM CLR 00/00 A3011 RMK AO2 T00040000
KSTC - St. Cloud, Minnesota, USA
Distance from station: NW 41mi, 67km
Updated: 10/17/2021 7:53am
Clear
Clear
 Wind from calm
Wind: Calm
Temperature: 30°F , -1°C
Dew Point: 30°F , -1°C
Humidity: 100%
Barometer: 30.11 inHg , 1019.6 hPa
Clouds: Clear
Visibility: 8 miles , 13 km
2021/10/17 12:53 KSTC 171253Z 00000KT 8SM CLR M01/M01 A3011 RMK AO2 SLP215 I1000 T10061011
 
KGYL - Glencoe, Minnesota, USA
Distance from station: SW 46mi, 74km
Updated: 10/17/2021 7:55am
Clear
Clear
 Wind from calm
Wind: Calm
Temperature: 34°F , 1°C
Dew Point: 32°F , 0°C
Humidity: 93%
Barometer: 30.14 inHg , 1020.7 hPa
Clouds: Clear
Visibility: 10 miles , 16 km
2021/10/17 12:55 KGYL 171255Z AUTO 00000KT 10SM CLR 01/00 A3014 RMK AO2 T00140003
KJMR - Mora, Minnesota, USA
Distance from station: N 48mi, 78km
Updated: 10/17/2021 7:55am

 Wind from calm
Wind: Calm
Temperature: 32°F , 0°C
Dew Point: 32°F , 0°C
Humidity: 100%
Barometer: 30.12 inHg , 1020 hPa
Visibility: 10 miles , 16 km
2021/10/17 12:55 KJMR 171255Z AUTO 00000KT 10SM 00/00 A3012 RMK AO2